sensor_id;sensor_type;location;lat;lon;timestamp;pressure;altitude;pressure_sealevel;temperature;humidity
67373;BME280;54257;54.496;18.412;2023-04-30T00:00:00;99732.56;;;6.08;70.57
67373;BME280;54257;54.496;18.412;2023-04-30T00:02:28;99729.29;;;6.06;70.67
67373;BME280;54257;54.496;18.412;2023-04-30T00:04:55;99731.71;;;6.02;70.63
67373;BME280;54257;54.496;18.412;2023-04-30T00:07:22;99730.91;;;5.98;70.63
67373;BME280;54257;54.496;18.412;2023-04-30T00:09:48;99728.09;;;5.95;70.60
67373;BME280;54257;54.496;18.412;2023-04-30T00:12:16;99730.02;;;5.92;70.62
67373;BME280;54257;54.496;18.412;2023-04-30T00:14:43;99733.11;;;5.88;70.75
67373;BME280;54257;54.496;18.412;2023-04-30T00:17:10;99738.20;;;5.83;70.73
67373;BME280;54257;54.496;18.412;2023-04-30T00:19:38;99740.09;;;5.78;70.68
67373;BME280;54257;54.496;18.412;2023-04-30T00:22:05;99743.54;;;5.76;70.63
67373;BME280;54257;54.496;18.412;2023-04-30T00:24:32;99745.34;;;5.73;70.85
67373;BME280;54257;54.496;18.412;2023-04-30T00:26:59;99748.48;;;5.71;70.84
67373;BME280;54257;54.496;18.412;2023-04-30T00:29:26;99750.08;;;5.68;70.87
67373;BME280;54257;54.496;18.412;2023-04-30T00:31:52;99752.88;;;5.66;70.83
67373;BME280;54257;54.496;18.412;2023-04-30T00:34:19;99755.98;;;5.62;70.99
67373;BME280;54257;54.496;18.412;2023-04-30T00:36:46;99757.05;;;5.58;70.85
67373;BME280;54257;54.496;18.412;2023-04-30T00:39:13;99762.06;;;5.56;71.17
67373;BME280;54257;54.496;18.412;2023-04-30T00:41:41;99767.02;;;5.53;71.40
67373;BME280;54257;54.496;18.412;2023-04-30T00:44:08;99768.44;;;5.49;71.23
67373;BME280;54257;54.496;18.412;2023-04-30T00:46:35;99770.36;;;5.46;71.31
67373;BME280;54257;54.496;18.412;2023-04-30T00:49:02;99771.41;;;5.42;71.61
67373;BME280;54257;54.496;18.412;2023-04-30T00:51:34;99775.17;;;5.38;71.55
67373;BME280;54257;54.496;18.412;2023-04-30T00:54:01;99773.02;;;5.35;71.67
67373;BME280;54257;54.496;18.412;2023-04-30T00:56:30;99773.10;;;5.32;71.83
67373;BME280;54257;54.496;18.412;2023-04-30T00:58:57;99774.02;;;5.29;71.83
67373;BME280;54257;54.496;18.412;2023-04-30T01:01:25;99776.08;;;5.25;72.11
67373;BME280;54257;54.496;18.412;2023-04-30T01:03:54;99776.48;;;5.22;72.36
67373;BME280;54257;54.496;18.412;2023-04-30T01:06:21;99777.54;;;5.19;72.24
67373;BME280;54257;54.496;18.412;2023-04-30T01:08:49;99778.79;;;5.15;72.61
67373;BME280;54257;54.496;18.412;2023-04-30T01:19:57;99777.09;;;5.01;72.91
67373;BME280;54257;54.496;18.412;2023-04-30T01:25:20;99780.45;;;4.96;73.00
67373;BME280;54257;54.496;18.412;2023-04-30T01:30:27;99788.23;;;4.90;73.47
67373;BME280;54257;54.496;18.412;2023-04-30T01:32:57;99791.90;;;4.89;73.37
67373;BME280;54257;54.496;18.412;2023-04-30T01:43:57;99797.69;;;4.81;73.59
67373;BME280;54257;54.496;18.412;2023-04-30T01:46:30;99804.33;;;4.77;74.09
67373;BME280;54257;54.496;18.412;2023-04-30T01:49:26;99805.11;;;4.76;74.03
67373;BME280;54257;54.496;18.412;2023-04-30T01:52:10;99807.20;;;4.73;74.23
67373;BME280;54257;54.496;18.412;2023-04-30T01:54:59;99808.77;;;4.69;74.26
67373;BME280;54257;54.496;18.412;2023-04-30T01:57:32;99811.73;;;4.67;74.33
67373;BME280;54257;54.496;18.412;2023-04-30T02:00:01;99811.14;;;4.65;74.64
67373;BME280;54257;54.496;18.412;2023-04-30T02:02:29;99816.75;;;4.62;74.76
67373;BME280;54257;54.496;18.412;2023-04-30T02:04:56;99814.44;;;4.58;74.84
67373;BME280;54257;54.496;18.412;2023-04-30T02:07:40;99815.85;;;4.56;75.49
67373;BME280;54257;54.496;18.412;2023-04-30T02:10:08;99817.42;;;4.53;75.30
67373;BME280;54257;54.496;18.412;2023-04-30T02:12:35;99824.94;;;4.50;75.53
67373;BME280;54257;54.496;18.412;2023-04-30T02:15:03;99823.98;;;4.47;75.34
67373;BME280;54257;54.496;18.412;2023-04-30T02:17:31;99826.52;;;4.47;75.29
67373;BME280;54257;54.496;18.412;2023-04-30T02:19:59;99827.82;;;4.46;75.52
67373;BME280;54257;54.496;18.412;2023-04-30T02:22:26;99828.10;;;4.44;75.61
67373;BME280;54257;54.496;18.412;2023-04-30T02:24:54;99828.02;;;4.42;75.67
67373;BME280;54257;54.496;18.412;2023-04-30T02:27:22;99835.73;;;4.40;75.86
67373;BME280;54257;54.496;18.412;2023-04-30T02:29:50;99837.15;;;4.38;76.26
67373;BME280;54257;54.496;18.412;2023-04-30T02:32:17;99837.88;;;4.35;76.48
67373;BME280;54257;54.496;18.412;2023-04-30T02:34:44;99837.92;;;4.32;77.05
67373;BME280;54257;54.496;18.412;2023-04-30T02:37:11;99837.46;;;4.29;77.03
67373;BME280;54257;54.496;18.412;2023-04-30T02:39:38;99837.73;;;4.27;77.22
67373;BME280;54257;54.496;18.412;2023-04-30T02:42:05;99839.69;;;4.25;77.21
67373;BME280;54257;54.496;18.412;2023-04-30T02:44:33;99840.11;;;4.23;77.41
67373;BME280;54257;54.496;18.412;2023-04-30T02:47:00;99838.33;;;4.20;77.49
67373;BME280;54257;54.496;18.412;2023-04-30T02:49:28;99840.44;;;4.18;77.53
67373;BME280;54257;54.496;18.412;2023-04-30T02:51:55;99845.60;;;4.16;77.96
67373;BME280;54257;54.496;18.412;2023-04-30T02:54:22;99847.75;;;4.15;77.76
67373;BME280;54257;54.496;18.412;2023-04-30T02:56:49;99848.73;;;4.15;78.01
67373;BME280;54257;54.496;18.412;2023-04-30T02:59:15;99848.33;;;4.13;78.39
67373;BME280;54257;54.496;18.412;2023-04-30T03:01:42;99854.22;;;4.12;78.19
67373;BME280;54257;54.496;18.412;2023-04-30T03:04:09;99854.34;;;4.11;78.24
67373;BME280;54257;54.496;18.412;2023-04-30T03:06:36;99854.80;;;4.10;78.38
67373;BME280;54257;54.496;18.412;2023-04-30T03:09:03;99856.79;;;4.09;78.45
67373;BME280;54257;54.496;18.412;2023-04-30T03:11:30;99857.38;;;4.07;78.94
67373;BME280;54257;54.496;18.412;2023-04-30T03:13:56;99858.49;;;4.05;79.18
67373;BME280;54257;54.496;18.412;2023-04-30T03:16:23;99858.63;;;4.05;79.14
67373;BME280;54257;54.496;18.412;2023-04-30T03:18:50;99865.36;;;4.04;79.40
67373;BME280;54257;54.496;18.412;2023-04-30T03:21:17;99868.70;;;4.03;79.39
67373;BME280;54257;54.496;18.412;2023-04-30T03:23:44;99874.10;;;4.03;79.41
67373;BME280;54257;54.496;18.412;2023-04-30T03:26:11;99876.09;;;4.02;79.77
67373;BME280;54257;54.496;18.412;2023-04-30T03:28:38;99880.31;;;4.02;79.60
67373;BME280;54257;54.496;18.412;2023-04-30T03:31:05;99883.01;;;4.01;79.91
67373;BME280;54257;54.496;18.412;2023-04-30T03:33:32;99882.99;;;4.01;79.94
67373;BME280;54257;54.496;18.412;2023-04-30T03:35:59;99882.12;;;4.00;80.19
67373;BME280;54257;54.496;18.412;2023-04-30T03:38:26;99881.63;;;4.01;80.15
67373;BME280;54257;54.496;18.412;2023-04-30T03:40:52;99884.77;;;3.99;80.69
67373;BME280;54257;54.496;18.412;2023-04-30T03:43:20;99886.68;;;4.00;80.67
67373;BME280;54257;54.496;18.412;2023-04-30T03:45:47;99888.56;;;4.01;81.23
67373;BME280;54257;54.496;18.412;2023-04-30T03:48:15;99891.27;;;4.01;81.63
67373;BME280;54257;54.496;18.412;2023-04-30T03:50:41;99893.67;;;4.02;81.68
67373;BME280;54257;54.496;18.412;2023-04-30T03:53:08;99900.13;;;4.03;81.76
67373;BME280;54257;54.496;18.412;2023-04-30T03:55:35;99899.48;;;4.04;82.01
67373;BME280;54257;54.496;18.412;2023-04-30T03:58:02;99897.88;;;4.06;81.89
67373;BME280;54257;54.496;18.412;2023-04-30T04:00:29;99895.58;;;4.07;82.68
67373;BME280;54257;54.496;18.412;2023-04-30T04:02:57;99899.33;;;4.08;82.49
67373;BME280;54257;54.496;18.412;2023-04-30T04:05:25;99905.14;;;4.09;82.65
67373;BME280;54257;54.496;18.412;2023-04-30T04:07:52;99908.48;;;4.12;82.79
67373;BME280;54257;54.496;18.412;2023-04-30T04:10:19;99908.56;;;4.15;82.64
67373;BME280;54257;54.496;18.412;2023-04-30T04:12:46;99912.16;;;4.15;83.08
67373;BME280;54257;54.496;18.412;2023-04-30T04:15:13;99919.02;;;4.18;83.07
67373;BME280;54257;54.496;18.412;2023-04-30T04:17:41;99926.36;;;4.20;83.09
67373;BME280;54257;54.496;18.412;2023-04-30T04:20:08;99926.43;;;4.22;83.39
67373;BME280;54257;54.496;18.412;2023-04-30T04:22:35;99927.23;;;4.24;83.35
67373;BME280;54257;54.496;18.412;2023-04-30T04:25:02;99933.77;;;4.28;83.43
67373;BME280;54257;54.496;18.412;2023-04-30T04:27:29;99930.84;;;4.30;83.74
67373;BME280;54257;54.496;18.412;2023-04-30T04:29:56;99930.95;;;4.33;84.00
67373;BME280;54257;54.496;18.412;2023-04-30T04:32:23;99934.28;;;4.36;84.19
67373;BME280;54257;54.496;18.412;2023-04-30T04:34:50;99936.77;;;4.39;84.33
67373;BME280;54257;54.496;18.412;2023-04-30T04:37:19;99932.02;;;4.42;84.28
67373;BME280;54257;54.496;18.412;2023-04-30T04:39:46;99928.44;;;4.46;84.42
67373;BME280;54257;54.496;18.412;2023-04-30T04:42:14;99932.12;;;4.49;84.48
67373;BME280;54257;54.496;18.412;2023-04-30T04:44:42;99929.41;;;4.54;85.02
67373;BME280;54257;54.496;18.412;2023-04-30T04:47:09;99932.59;;;4.57;84.74
67373;BME280;54257;54.496;18.412;2023-04-30T04:49:38;99938.52;;;4.61;84.59
67373;BME280;54257;54.496;18.412;2023-04-30T04:52:05;99942.39;;;4.65;84.91
67373;BME280;54257;54.496;18.412;2023-04-30T04:54:32;99944.23;;;4.69;85.72
67373;BME280;54257;54.496;18.412;2023-04-30T04:56:59;99946.90;;;4.72;85.96
67373;BME280;54257;54.496;18.412;2023-04-30T04:59:26;99954.32;;;4.75;85.64
67373;BME280;54257;54.496;18.412;2023-04-30T05:01:53;99952.95;;;4.80;85.78
67373;BME280;54257;54.496;18.412;2023-04-30T05:04:20;99953.10;;;4.83;85.79
67373;BME280;54257;54.496;18.412;2023-04-30T05:06:47;99955.27;;;4.87;85.84
67373;BME280;54257;54.496;18.412;2023-04-30T05:09:14;99953.27;;;4.92;86.03
67373;BME280;54257;54.496;18.412;2023-04-30T05:11:41;99960.09;;;4.97;85.74
67373;BME280;54257;54.496;18.412;2023-04-30T05:14:10;99960.42;;;5.02;85.82
67373;BME280;54257;54.496;18.412;2023-04-30T05:16:36;99964.02;;;5.07;85.75
67373;BME280;54257;54.496;18.412;2023-04-30T05:19:03;99968.42;;;5.12;85.75
67373;BME280;54257;54.496;18.412;2023-04-30T05:21:30;99970.61;;;5.16;85.73
67373;BME280;54257;54.496;18.412;2023-04-30T05:23:57;99973.81;;;5.20;85.42
67373;BME280;54257;54.496;18.412;2023-04-30T05:26:24;99975.52;;;5.25;85.63
67373;BME280;54257;54.496;18.412;2023-04-30T05:28:52;99976.05;;;5.30;85.13
67373;BME280;54257;54.496;18.412;2023-04-30T05:31:19;99981.33;;;5.35;85.12
67373;BME280;54257;54.496;18.412;2023-04-30T05:33:46;99987.99;;;5.41;85.16
67373;BME280;54257;54.496;18.412;2023-04-30T05:36:13;99992.67;;;5.48;84.97
67373;BME280;54257;54.496;18.412;2023-04-30T05:38:40;99998.13;;;5.58;85.04
67373;BME280;54257;54.496;18.412;2023-04-30T05:41:10;99998.46;;;5.73;85.08
67373;BME280;54257;54.496;18.412;2023-04-30T05:43:37;100002.43;;;5.88;84.72
67373;BME280;54257;54.496;18.412;2023-04-30T05:46:04;100009.25;;;6.03;84.24
67373;BME280;54257;54.496;18.412;2023-04-30T05:48:31;100009.76;;;6.17;83.90
67373;BME280;54257;54.496;18.412;2023-04-30T05:50:58;100008.21;;;6.32;83.34
67373;BME280;54257;54.496;18.412;2023-04-30T05:53:25;100004.51;;;6.47;82.74
67373;BME280;54257;54.496;18.412;2023-04-30T05:55:52;100009.10;;;6.63;82.51
67373;BME280;54257;54.496;18.412;2023-04-30T05:58:19;100012.79;;;6.82;81.99
67373;BME280;54257;54.496;18.412;2023-04-30T06:00:50;100011.60;;;7.04;81.23
67373;BME280;54257;54.496;18.412;2023-04-30T06:03:20;100016.55;;;7.32;81.18
67373;BME280;54257;54.496;18.412;2023-04-30T06:05:46;100015.91;;;7.56;79.10
67373;BME280;54257;54.496;18.412;2023-04-30T06:08:14;100019.53;;;7.75;78.58
67373;BME280;54257;54.496;18.412;2023-04-30T06:10:41;100023.80;;;7.99;77.88
67373;BME280;54257;54.496;18.412;2023-04-30T06:13:07;100028.47;;;8.27;76.99
67373;BME280;54257;54.496;18.412;2023-04-30T06:15:34;100028.57;;;8.49;75.68
67373;BME280;54257;54.496;18.412;2023-04-30T06:18:01;100029.20;;;8.67;75.53
67373;BME280;54257;54.496;18.412;2023-04-30T06:20:28;100029.02;;;8.81;73.85
67373;BME280;54257;54.496;18.412;2023-04-30T06:22:55;100027.84;;;8.94;72.73
67373;BME280;54257;54.496;18.412;2023-04-30T06:25:22;100033.73;;;9.07;71.57
67373;BME280;54257;54.496;18.412;2023-04-30T06:27:49;100036.27;;;9.27;71.52
67373;BME280;54257;54.496;18.412;2023-04-30T06:30:22;100035.82;;;9.53;71.12
67373;BME280;54257;54.496;18.412;2023-04-30T06:32:49;100033.02;;;9.73;70.03
67373;BME280;54257;54.496;18.412;2023-04-30T06:35:16;100034.55;;;9.90;68.68
67373;BME280;54257;54.496;18.412;2023-04-30T06:37:43;100040.09;;;10.02;67.55
67373;BME280;54257;54.496;18.412;2023-04-30T06:40:10;100042.66;;;10.19;68.01
67373;BME280;54257;54.496;18.412;2023-04-30T06:42:37;100042.55;;;10.49;68.72
67373;BME280;54257;54.496;18.412;2023-04-30T06:45:04;100044.61;;;10.78;66.93
67373;BME280;54257;54.496;18.412;2023-04-30T06:47:33;100042.18;;;10.97;65.42
67373;BME280;54257;54.496;18.412;2023-04-30T06:50:01;100042.06;;;11.11;64.52
67373;BME280;54257;54.496;18.412;2023-04-30T06:52:29;100046.70;;;11.12;63.03
67373;BME280;54257;54.496;18.412;2023-04-30T06:54:56;100047.32;;;11.19;62.46
67373;BME280;54257;54.496;18.412;2023-04-30T06:57:23;100045.17;;;11.23;62.78
67373;BME280;54257;54.496;18.412;2023-04-30T06:59:51;100045.08;;;11.40;62.12
67373;BME280;54257;54.496;18.412;2023-04-30T07:02:17;100046.10;;;11.51;61.38
67373;BME280;54257;54.496;18.412;2023-04-30T07:04:44;100044.59;;;11.78;60.28
67373;BME280;54257;54.496;18.412;2023-04-30T07:07:12;100043.73;;;11.90;59.24
67373;BME280;54257;54.496;18.412;2023-04-30T07:09:38;100047.59;;;11.84;58.22
67373;BME280;54257;54.496;18.412;2023-04-30T07:12:06;100045.08;;;11.89;57.73
67373;BME280;54257;54.496;18.412;2023-04-30T07:14:33;100045.83;;;12.07;58.78
67373;BME280;54257;54.496;18.412;2023-04-30T07:16:59;100050.48;;;12.25;57.92
67373;BME280;54257;54.496;18.412;2023-04-30T07:19:27;100049.55;;;12.20;55.27
67373;BME280;54257;54.496;18.412;2023-04-30T07:21:54;100054.50;;;12.18;55.91
67373;BME280;54257;54.496;18.412;2023-04-30T07:24:24;100057.52;;;12.28;56.15
67373;BME280;54257;54.496;18.412;2023-04-30T07:26:51;100051.75;;;12.48;54.25
67373;BME280;54257;54.496;18.412;2023-04-30T07:29:18;100055.02;;;12.49;52.95
67373;BME280;54257;54.496;18.412;2023-04-30T07:31:45;100055.66;;;12.61;51.65
67373;BME280;54257;54.496;18.412;2023-04-30T07:34:13;100057.79;;;12.70;52.25
67373;BME280;54257;54.496;18.412;2023-04-30T07:36:40;100056.80;;;12.74;52.98
67373;BME280;54257;54.496;18.412;2023-04-30T07:39:07;100054.34;;;12.86;52.84
67373;BME280;54257;54.496;18.412;2023-04-30T07:41:34;100057.87;;;12.99;50.34
67373;BME280;54257;54.496;18.412;2023-04-30T07:44:00;100066.18;;;12.87;49.58
67373;BME280;54257;54.496;18.412;2023-04-30T07:46:27;100060.58;;;12.94;49.51
67373;BME280;54257;54.496;18.412;2023-04-30T07:48:55;100063.34;;;13.15;49.35
67373;BME280;54257;54.496;18.412;2023-04-30T07:51:21;100064.06;;;13.21;48.12
67373;BME280;54257;54.496;18.412;2023-04-30T07:53:48;100066.00;;;13.06;48.23
67373;BME280;54257;54.496;18.412;2023-04-30T07:56:15;100068.40;;;13.07;48.19
67373;BME280;54257;54.496;18.412;2023-04-30T07:58:42;100072.84;;;13.24;47.52
67373;BME280;54257;54.496;18.412;2023-04-30T08:01:09;100072.63;;;13.38;48.28
67373;BME280;54257;54.496;18.412;2023-04-30T08:03:36;100073.15;;;13.41;47.50
67373;BME280;54257;54.496;18.412;2023-04-30T08:06:04;100073.48;;;13.65;48.01
67373;BME280;54257;54.496;18.412;2023-04-30T08:08:31;100077.40;;;13.91;47.87
67373;BME280;54257;54.496;18.412;2023-04-30T08:10:58;100083.42;;;13.93;46.24
67373;BME280;54257;54.496;18.412;2023-04-30T08:13:25;100087.62;;;13.76;45.24
67373;BME280;54257;54.496;18.412;2023-04-30T08:15:52;100090.37;;;13.47;44.33
67373;BME280;54257;54.496;18.412;2023-04-30T08:18:19;100088.02;;;13.56;43.99
67373;BME280;54257;54.496;18.412;2023-04-30T08:20:46;100088.53;;;13.57;43.77
67373;BME280;54257;54.496;18.412;2023-04-30T08:23:13;100089.67;;;13.75;45.09
67373;BME280;54257;54.496;18.412;2023-04-30T08:25:40;100092.50;;;13.89;44.68
67373;BME280;54257;54.496;18.412;2023-04-30T08:28:07;100095.31;;;14.02;43.79
67373;BME280;54257;54.496;18.412;2023-04-30T08:30:33;100103.00;;;13.93;43.76
67373;BME280;54257;54.496;18.412;2023-04-30T08:33:00;100106.76;;;13.90;44.07
67373;BME280;54257;54.496;18.412;2023-04-30T08:35:27;100104.33;;;14.22;43.73
67373;BME280;54257;54.496;18.412;2023-04-30T08:37:55;100108.41;;;14.51;41.01
67373;BME280;54257;54.496;18.412;2023-04-30T08:40:22;100109.48;;;14.61;40.90
67373;BME280;54257;54.496;18.412;2023-04-30T08:43:06;100112.42;;;14.70;41.66
67373;BME280;54257;54.496;18.412;2023-04-30T08:45:33;100125.07;;;14.49;39.37
67373;BME280;54257;54.496;18.412;2023-04-30T08:48:08;100128.80;;;14.35;39.42
67373;BME280;54257;54.496;18.412;2023-04-30T08:50:40;100125.61;;;14.56;39.77
67373;BME280;54257;54.496;18.412;2023-04-30T08:53:09;100125.87;;;14.91;40.19
67373;BME280;54257;54.496;18.412;2023-04-30T08:55:37;100127.12;;;15.25;40.07
67373;BME280;54257;54.496;18.412;2023-04-30T08:58:05;100126.94;;;15.39;40.04
67373;BME280;54257;54.496;18.412;2023-04-30T09:00:34;100133.98;;;15.48;38.95
67373;BME280;54257;54.496;18.412;2023-04-30T09:03:03;100135.70;;;15.46;37.13
67373;BME280;54257;54.496;18.412;2023-04-30T09:05:33;100139.84;;;15.31;37.54
67373;BME280;54257;54.496;18.412;2023-04-30T09:08:00;100138.46;;;15.35;38.52
67373;BME280;54257;54.496;18.412;2023-04-30T09:10:31;100135.89;;;15.64;38.27
67373;BME280;54257;54.496;18.412;2023-04-30T09:13:05;100142.59;;;15.76;37.55
67373;BME280;54257;54.496;18.412;2023-04-30T09:15:37;100145.20;;;15.68;38.31
67373;BME280;54257;54.496;18.412;2023-04-30T09:18:14;100154.09;;;16.01;38.07
67373;BME280;54257;54.496;18.412;2023-04-30T09:23:20;100149.06;;;16.57;36.57
67373;BME280;54257;54.496;18.412;2023-04-30T09:25:47;100156.84;;;16.50;35.28
67373;BME280;54257;54.496;18.412;2023-04-30T09:28:14;100155.47;;;15.97;33.89
67373;BME280;54257;54.496;18.412;2023-04-30T09:30:42;100159.48;;;15.78;36.02
67373;BME280;54257;54.496;18.412;2023-04-30T09:33:09;100165.63;;;16.04;36.53
67373;BME280;54257;54.496;18.412;2023-04-30T09:35:37;100156.45;;;16.17;36.23
67373;BME280;54257;54.496;18.412;2023-04-30T09:38:24;100159.73;;;16.18;36.22
67373;BME280;54257;54.496;18.412;2023-04-30T09:40:52;100165.68;;;16.41;34.81
67373;BME280;54257;54.496;18.412;2023-04-30T09:43:19;100164.73;;;16.63;35.45
67373;BME280;54257;54.496;18.412;2023-04-30T09:45:47;100167.28;;;16.77;34.53
67373;BME280;54257;54.496;18.412;2023-04-30T09:48:21;100162.15;;;16.68;35.16
67373;BME280;54257;54.496;18.412;2023-04-30T09:50:49;100169.27;;;16.54;35.52
67373;BME280;54257;54.496;18.412;2023-04-30T09:53:18;100174.86;;;16.34;34.49
67373;BME280;54257;54.496;18.412;2023-04-30T09:55:49;100175.42;;;16.22;35.01
67373;BME280;54257;54.496;18.412;2023-04-30T09:58:18;100177.10;;;16.33;36.04
67373;BME280;54257;54.496;18.412;2023-04-30T10:00:45;100178.27;;;16.39;35.44
67373;BME280;54257;54.496;18.412;2023-04-30T10:03:15;100174.56;;;16.61;35.30
67373;BME280;54257;54.496;18.412;2023-04-30T10:05:47;100177.79;;;16.81;34.68
67373;BME280;54257;54.496;18.412;2023-04-30T10:08:26;100174.00;;;17.07;33.93
67373;BME280;54257;54.496;18.412;2023-04-30T10:10:58;100167.80;;;17.05;32.25
67373;BME280;54257;54.496;18.412;2023-04-30T10:13:32;100179.73;;;16.71;32.96
67373;BME280;54257;54.496;18.412;2023-04-30T10:16:07;100182.50;;;16.70;33.71
67373;BME280;54257;54.496;18.412;2023-04-30T10:18:38;100170.94;;;16.64;33.80
67373;BME280;54257;54.496;18.412;2023-04-30T10:21:12;100173.17;;;16.67;33.88
67373;BME280;54257;54.496;18.412;2023-04-30T10:23:40;100168.69;;;16.69;33.78
67373;BME280;54257;54.496;18.412;2023-04-30T10:26:13;100169.95;;;16.91;34.22
67373;BME280;54257;54.496;18.412;2023-04-30T10:28:41;100170.62;;;17.22;33.09
67373;BME280;54257;54.496;18.412;2023-04-30T10:31:09;100168.30;;;17.52;32.87
67373;BME280;54257;54.496;18.412;2023-04-30T10:34:18;100169.84;;;17.55;31.63
67373;BME280;54257;54.496;18.412;2023-04-30T10:37:20;100171.03;;;17.57;31.20
67373;BME280;54257;54.496;18.412;2023-04-30T10:39:50;100167.78;;;17.53;32.38
67373;BME280;54257;54.496;18.412;2023-04-30T10:42:17;100183.33;;;17.32;30.97
67373;BME280;54257;54.496;18.412;2023-04-30T10:44:46;100180.83;;;17.19;31.41
67373;BME280;54257;54.496;18.412;2023-04-30T10:47:15;100179.27;;;17.20;31.66
67373;BME280;54257;54.496;18.412;2023-04-30T10:49:46;100179.12;;;16.90;31.54
67373;BME280;54257;54.496;18.412;2023-04-30T10:52:25;100184.66;;;16.87;31.73
67373;BME280;54257;54.496;18.412;2023-04-30T10:54:54;100176.31;;;16.95;31.95
67373;BME280;54257;54.496;18.412;2023-04-30T10:57:21;100179.39;;;17.02;31.58
67373;BME280;54257;54.496;18.412;2023-04-30T10:59:53;100179.20;;;17.04;31.19
67373;BME280;54257;54.496;18.412;2023-04-30T11:02:41;100185.77;;;17.00;31.26
67373;BME280;54257;54.496;18.412;2023-04-30T11:05:16;100176.55;;;17.13;31.24
67373;BME280;54257;54.496;18.412;2023-04-30T11:07:56;100175.10;;;17.23;31.06
67373;BME280;54257;54.496;18.412;2023-04-30T11:10:25;100170.92;;;17.28;31.59
67373;BME280;54257;54.496;18.412;2023-04-30T11:12:54;100175.67;;;17.40;31.93
67373;BME280;54257;54.496;18.412;2023-04-30T11:15:26;100170.50;;;17.59;32.51
67373;BME280;54257;54.496;18.412;2023-04-30T11:17:57;100172.41;;;17.80;31.52
67373;BME280;54257;54.496;18.412;2023-04-30T11:20:28;100176.02;;;17.82;30.76
67373;BME280;54257;54.496;18.412;2023-04-30T11:23:15;100176.57;;;17.79;30.37
67373;BME280;54257;54.496;18.412;2023-04-30T11:25:44;100175.42;;;17.70;29.59
67373;BME280;54257;54.496;18.412;2023-04-30T11:31:03;100190.20;;;17.35;29.98
67373;BME280;54257;54.496;18.412;2023-04-30T11:33:33;100195.10;;;17.26;29.61
67373;BME280;54257;54.496;18.412;2023-04-30T11:36:00;100192.73;;;17.19;30.38
67373;BME280;54257;54.496;18.412;2023-04-30T11:38:30;100202.75;;;17.20;30.55
67373;BME280;54257;54.496;18.412;2023-04-30T11:41:03;100190.77;;;17.27;31.08
67373;BME280;54257;54.496;18.412;2023-04-30T11:43:31;100198.30;;;17.38;30.49
67373;BME280;54257;54.496;18.412;2023-04-30T11:46:09;100198.47;;;17.38;29.58
67373;BME280;54257;54.496;18.412;2023-04-30T11:48:38;100196.81;;;17.29;29.37
67373;BME280;54257;54.496;18.412;2023-04-30T11:51:20;100199.90;;;17.32;29.61
67373;BME280;54257;54.496;18.412;2023-04-30T11:53:48;100201.98;;;17.31;29.85
67373;BME280;54257;54.496;18.412;2023-04-30T11:56:23;100204.52;;;17.37;29.93
67373;BME280;54257;54.496;18.412;2023-04-30T11:58:51;100208.08;;;17.47;29.87
67373;BME280;54257;54.496;18.412;2023-04-30T12:01:21;100210.70;;;17.45;29.55
67373;BME280;54257;54.496;18.412;2023-04-30T12:03:51;100204.81;;;17.46;29.63
67373;BME280;54257;54.496;18.412;2023-04-30T12:06:27;100204.27;;;17.47;30.16
67373;BME280;54257;54.496;18.412;2023-04-30T12:08:55;100211.95;;;17.60;30.88
67373;BME280;54257;54.496;18.412;2023-04-30T12:11:28;100208.36;;;17.55;29.45
67373;BME280;54257;54.496;18.412;2023-04-30T12:13:57;100212.34;;;17.30;30.07
67373;BME280;54257;54.496;18.412;2023-04-30T12:16:27;100208.55;;;17.29;30.34
67373;BME280;54257;54.496;18.412;2023-04-30T12:18:54;100212.30;;;17.37;29.76
67373;BME280;54257;54.496;18.412;2023-04-30T12:21:21;100212.04;;;17.25;29.65
67373;BME280;54257;54.496;18.412;2023-04-30T12:23:48;100208.90;;;17.01;29.92
67373;BME280;54257;54.496;18.412;2023-04-30T12:26:15;100208.95;;;16.92;30.72
67373;BME280;54257;54.496;18.412;2023-04-30T12:28:46;100222.02;;;17.00;30.43
67373;BME280;54257;54.496;18.412;2023-04-30T12:31:16;100218.04;;;17.04;30.19
67373;BME280;54257;54.496;18.412;2023-04-30T12:33:52;100213.23;;;16.98;30.20
67373;BME280;54257;54.496;18.412;2023-04-30T12:36:19;100216.80;;;17.08;30.99
67373;BME280;54257;54.496;18.412;2023-04-30T12:38:46;100211.63;;;17.09;30.89
67373;BME280;54257;54.496;18.412;2023-04-30T12:41:13;100216.91;;;16.89;31.19
67373;BME280;54257;54.496;18.412;2023-04-30T12:43:42;100219.73;;;16.76;31.65
67373;BME280;54257;54.496;18.412;2023-04-30T12:46:09;100215.23;;;16.79;30.85
67373;BME280;54257;54.496;18.412;2023-04-30T12:48:43;100215.23;;;16.80;31.35
67373;BME280;54257;54.496;18.412;2023-04-30T12:51:18;100219.20;;;16.78;31.25
67373;BME280;54257;54.496;18.412;2023-04-30T12:53:45;100215.25;;;16.68;31.56
67373;BME280;54257;54.496;18.412;2023-04-30T12:56:17;100218.71;;;16.64;31.66
67373;BME280;54257;54.496;18.412;2023-04-30T12:58:46;100218.48;;;16.30;31.38
67373;BME280;54257;54.496;18.412;2023-04-30T13:01:18;100217.30;;;16.11;32.58
67373;BME280;54257;54.496;18.412;2023-04-30T13:03:46;100212.67;;;16.13;32.78
67373;BME280;54257;54.496;18.412;2023-04-30T13:06:13;100221.08;;;16.23;32.63
67373;BME280;54257;54.496;18.412;2023-04-30T13:08:41;100223.16;;;16.22;32.40
67373;BME280;54257;54.496;18.412;2023-04-30T13:11:09;100223.02;;;16.15;32.68
67373;BME280;54257;54.496;18.412;2023-04-30T13:13:36;100225.56;;;16.26;33.03
67373;BME280;54257;54.496;18.412;2023-04-30T13:16:03;100233.83;;;16.34;33.39
67373;BME280;54257;54.496;18.412;2023-04-30T13:18:32;100231.89;;;16.43;33.90
67373;BME280;54257;54.496;18.412;2023-04-30T13:20:59;100234.30;;;16.47;33.67
67373;BME280;54257;54.496;18.412;2023-04-30T13:23:26;100227.73;;;16.51;32.90